Time;durP1;ratioP1;P1;durP2;ratioP2;P2;SDS_P1;SDS_P2;PMS_P1;PMS_P2;Temp;Humidity;BMP_temperature;BMP_pressure;BME280_temperature;BME280_humidity;BME280_pressure;Samples;Min_cycle;Max_cycle;Signal;HPM_P1;HPM_P2
2021/12/18 00:02:20;;;;;;;42.90;30.90;;;8.10;99.90;;;;;;5111583;28;20054;-66
2021/12/18 00:04:47;;;;;;;41.55;32.97;;;8.00;99.90;;;;;;5086847;28;20389;-66
2021/12/18 00:07:14;;;;;;;40.83;29.40;;;8.10;99.90;;;;;;5089646;28;20039;-67
2021/12/18 00:09:41;;;;;;;43.78;31.88;;;8.00;99.90;;;;;;5090635;28;20044;-67
2021/12/18 00:12:09;;;;;;;43.45;32.38;;;8.00;99.90;;;;;;5074735;28;20353;-66
2021/12/18 00:14:36;;;;;;;45.42;33.17;;;8.10;99.90;;;;;;5103748;28;20040;-67
2021/12/18 00:17:04;;;;;;;42.17;29.33;;;8.10;99.90;;;;;;5089462;28;20345;-66
2021/12/18 00:19:31;;;;;;;41.25;29.35;;;8.00;99.90;;;;;;5089428;28;20077;-66
2021/12/18 00:21:58;;;;;;;44.05;31.27;;;8.00;99.90;;;;;;5088971;28;20079;-67
2021/12/18 00:24:29;;;;;;;39.22;29.17;;;8.00;99.90;;;;;;5106301;28;20043;-66
2021/12/18 00:26:56;;;;;;;30.98;22.63;;;8.00;99.90;;;;;;5109161;28;20061;-67
2021/12/18 00:29:23;;;;;;;35.38;28.45;;;8.00;99.90;;;;;;5110653;28;20073;-67
2021/12/18 00:31:51;;;;;;;32.35;25.20;;;8.00;99.90;;;;;;5111154;28;20040;-66
2021/12/18 00:34:19;;;;;;;25.45;17.70;;;8.00;99.90;;;;;;5108923;28;20071;-67
2021/12/18 00:36:46;;;;;;;22.25;19.45;;;8.00;99.90;;;;;;5092898;28;20189;-66
2021/12/18 00:39:13;;;;;;;29.92;21.02;;;8.00;99.90;;;;;;5110381;28;20073;-74
2021/12/18 00:44:13;;;;;;;26.00;20.45;;;8.00;99.90;;;;;;5109125;28;20055;-66
2021/12/18 00:46:42;;;;;;;26.00;21.58;;;8.00;99.90;;;;;;5110239;28;20130;-67
2021/12/18 00:49:12;;;;;;;23.10;19.70;;;8.00;99.90;;;;;;5092737;28;20047;-67
2021/12/18 00:51:39;;;;;;;25.80;22.10;;;8.10;99.90;;;;;;5110695;28;20048;-67
2021/12/18 00:54:06;;;;;;;22.75;17.92;;;8.00;99.90;;;;;;5110281;28;20048;-67
2021/12/18 00:56:33;;;;;;;24.77;19.67;;;8.00;99.90;;;;;;5110184;28;20054;-73
2021/12/18 00:58:59;;;;;;;23.58;19.27;;;8.00;99.90;;;;;;5108682;28;20046;-67
2021/12/18 01:01:28;;;;;;;24.15;18.45;;;8.10;99.90;;;;;;5105954;28;20039;-66
2021/12/18 01:03:55;;;;;;;24.80;21.27;;;8.10;99.90;;;;;;5092282;28;20048;-67
2021/12/18 01:06:23;;;;;;;23.73;21.23;;;8.10;99.90;;;;;;5109064;28;20406;-68
2021/12/18 01:08:53;;;;;;;29.25;21.90;;;8.10;99.90;;;;;;5110721;28;20047;-67
2021/12/18 01:16:24;;;;;;;25.95;23.27;;;8.10;99.90;;;;;;5098679;28;20040;-67
2021/12/18 01:24:22;;;;;;;21.20;17.77;;;8.10;99.90;;;;;;5113127;28;20047;-66
2021/12/18 01:26:49;;;;;;;21.80;19.27;;;8.10;99.90;;;;;;5112791;28;20043;-68
2021/12/18 01:29:16;;;;;;;25.33;20.90;;;8.10;99.90;;;;;;5095719;28;20048;-66
2021/12/18 01:31:43;;;;;;;28.17;24.33;;;8.10;99.90;;;;;;5112807;28;20130;-66
2021/12/18 01:34:10;;;;;;;30.65;27.20;;;8.10;99.90;;;;;;5112765;28;20051;-66
2021/12/18 01:36:37;;;;;;;31.02;27.65;;;8.20;99.90;;;;;;5114055;28;20644;-67
2021/12/18 01:39:04;;;;;;;31.83;28.13;;;8.20;99.90;;;;;;5112911;28;20109;-69
2021/12/18 01:41:52;;;;;;;29.67;23.10;;;8.20;99.90;;;;;;5079568;28;20066;-66
2021/12/18 01:44:49;;;;;;;33.85;26.88;;;8.20;99.90;;;;;;5112679;28;20071;-67
2021/12/18 01:52:40;;;;;;;31.30;27.70;;;8.20;99.90;;;;;;5113131;28;20122;-67
2021/12/18 01:55:08;;;;;;;37.42;30.25;;;8.20;99.90;;;;;;5090292;28;20040;-67
2021/12/18 01:57:36;;;;;;;41.38;32.08;;;8.20;99.90;;;;;;5092129;28;20051;-66
2021/12/18 02:00:20;;;;;;;37.35;29.95;;;8.20;99.90;;;;;;5093231;28;20054;-67
2021/12/18 02:02:47;;;;;;;47.38;36.00;;;8.20;99.90;;;;;;5111599;28;20071;-66
2021/12/18 02:05:15;;;;;;;39.17;31.27;;;8.20;99.90;;;;;;5094979;28;20462;-67
2021/12/18 02:07:42;;;;;;;37.60;29.77;;;8.20;99.90;;;;;;5101268;28;20106;-66
2021/12/18 02:10:17;;;;;;;35.33;29.17;;;8.20;99.90;;;;;;5100987;28;20044;-66
2021/12/18 02:12:58;;;;;;;38.03;29.88;;;8.20;99.90;;;;;;5092611;28;20047;-66
2021/12/18 02:20:58;;;;;;;34.60;27.17;;;8.20;99.90;;;;;;5097529;28;20372;-66
2021/12/18 02:23:25;;;;;;;35.00;29.50;;;8.20;99.90;;;;;;5074407;28;20052;-67
2021/12/18 02:25:52;;;;;;;37.70;31.05;;;8.20;99.90;;;;;;5094833;28;20578;-74
2021/12/18 02:28:24;;;;;;;41.35;31.20;;;8.20;99.90;;;;;;5095740;28;20166;-66
2021/12/18 02:30:52;;;;;;;36.97;30.63;;;8.20;99.90;;;;;;5059580;28;20056;-66
2021/12/18 02:33:20;;;;;;;36.63;30.48;;;8.20;99.90;;;;;;5065189;28;20513;-66
2021/12/18 02:35:49;;;;;;;36.97;31.10;;;8.10;99.90;;;;;;5095096;28;20058;-66
2021/12/18 02:38:23;;;;;;;35.20;28.88;;;8.10;99.90;;;;;;5095100;28;20139;-67
2021/12/18 02:43:40;;;;;;;32.90;28.52;;;8.10;99.90;;;;;;5110543;28;20074;-66
2021/12/18 02:46:08;;;;;;;36.17;30.77;;;8.20;99.90;;;;;;5075207;28;20066;-67
2021/12/18 02:48:37;;;;;;;38.92;30.13;;;8.20;99.90;;;;;;5092575;28;20471;-67
2021/12/18 02:51:08;;;;;;;39.60;33.60;;;8.20;99.90;;;;;;5097999;28;20044;-67
2021/12/18 02:53:36;;;;;;;39.65;32.42;;;8.10;99.90;;;;;;5094482;28;20477;-66
2021/12/18 02:56:04;;;;;;;35.38;30.95;;;8.10;99.90;;;;;;5111083;28;20131;-67
2021/12/18 02:58:46;;;;;;;39.57;32.70;;;8.20;99.90;;;;;;5106498;28;20055;-74
2021/12/18 03:01:21;;;;;;;37.40;30.85;;;8.20;99.90;;;;;;5090782;28;20070;-66
2021/12/18 03:03:49;;;;;;;37.95;31.20;;;8.20;99.90;;;;;;5085071;28;20083;-66
2021/12/18 03:08:55;;;;;;;41.75;30.27;;;8.20;99.90;;;;;;5110646;28;20040;-66
2021/12/18 03:25:25;;;;;;;37.30;29.25;;;8.10;99.90;;;;;;5106081;28;20406;-66
2021/12/18 03:27:30;;;;;;;;;;;8.10;99.90;;;;;;5103163;28;20071;-66
2021/12/18 03:29:58;;;;;;;35.33;26.83;;;8.10;99.90;;;;;;5092441;28;19972;-66
2021/12/18 03:32:25;;;;;;;34.72;27.08;;;8.10;99.90;;;;;;5081703;28;20044;-66
2021/12/18 03:34:53;;;;;;;36.08;29.17;;;8.10;99.90;;;;;;5093597;28;20078;-66
2021/12/18 03:37:19;;;;;;;39.65;29.60;;;8.10;99.90;;;;;;5110418;28;20491;-66
2021/12/18 03:39:47;;;;;;;41.20;30.42;;;8.10;99.90;;;;;;5058089;28;20436;-67
2021/12/18 03:42:14;;;;;;;40.08;30.58;;;8.10;99.90;;;;;;5073167;28;20093;-66
2021/12/18 03:44:41;;;;;;;40.45;32.05;;;8.20;99.90;;;;;;5073108;28;20131;-66
2021/12/18 03:47:08;;;;;;;36.95;30.92;;;8.20;99.90;;;;;;5107258;28;20458;-66
2021/12/18 03:49:35;;;;;;;38.20;30.45;;;8.20;99.90;;;;;;5111445;28;20051;-66
2021/12/18 03:52:02;;;;;;;35.83;28.05;;;8.20;99.90;;;;;;5110575;28;20063;-66
2021/12/18 03:54:29;;;;;;;38.53;28.60;;;8.20;99.90;;;;;;5109898;28;20135;-66
2021/12/18 03:56:56;;;;;;;37.25;26.83;;;8.20;99.90;;;;;;5111716;28;20043;-66
2021/12/18 03:59:23;;;;;;;35.47;25.85;;;8.10;99.90;;;;;;5093292;28;20064;-70
2021/12/18 04:01:50;;;;;;;35.53;27.73;;;8.10;99.90;;;;;;5110124;28;20575;-66
2021/12/18 04:04:17;;;;;;;34.63;26.08;;;8.10;99.90;;;;;;5109574;28;20468;-68
2021/12/18 04:06:45;;;;;;;37.35;27.98;;;8.10;99.90;;;;;;5110110;28;20050;-67
2021/12/18 04:09:12;;;;;;;36.72;27.15;;;8.10;99.90;;;;;;5109903;28;20051;-66
2021/12/18 04:11:40;;;;;;;44.15;28.38;;;8.10;99.90;;;;;;5110637;28;20079;-67
2021/12/18 04:14:07;;;;;;;36.10;26.05;;;8.10;99.90;;;;;;5108825;28;20046;-66
2021/12/18 04:16:34;;;;;;;38.17;27.55;;;8.10;99.90;;;;;;5109434;28;20054;-67
2021/12/18 04:19:01;;;;;;;32.13;26.15;;;8.10;99.90;;;;;;5110428;28;20071;-66
2021/12/18 04:21:29;;;;;;;38.67;25.55;;;8.10;99.90;;;;;;5092517;28;20051;-67
2021/12/18 04:23:56;;;;;;;35.50;25.30;;;8.10;99.90;;;;;;5109291;28;20071;-66
2021/12/18 04:26:24;;;;;;;36.28;26.25;;;8.00;99.90;;;;;;5092201;28;20040;-66
2021/12/18 04:28:51;;;;;;;36.25;24.58;;;8.00;99.90;;;;;;5110326;28;20039;-66
2021/12/18 04:31:18;;;;;;;42.03;28.58;;;8.00;99.90;;;;;;5109326;28;20065;-66
2021/12/18 04:33:45;;;;;;;37.60;26.88;;;8.00;99.90;;;;;;5108774;28;20050;-66
2021/12/18 04:36:12;;;;;;;37.15;27.00;;;7.90;99.90;;;;;;5109251;28;20079;-67
2021/12/18 04:38:39;;;;;;;39.47;26.90;;;7.90;99.90;;;;;;5092429;28;20122;-66
2021/12/18 04:41:06;;;;;;;42.05;27.05;;;7.90;99.90;;;;;;5108815;28;20056;-66
2021/12/18 04:43:33;;;;;;;35.55;27.25;;;7.90;99.90;;;;;;5109108;28;20052;-66
2021/12/18 04:46:00;;;;;;;42.20;29.05;;;7.90;99.90;;;;;;5110784;28;20437;-66
2021/12/18 04:48:27;;;;;;;40.65;27.40;;;7.90;99.90;;;;;;5075199;28;20135;-66
2021/12/18 04:50:54;;;;;;;48.58;28.38;;;7.90;99.90;;;;;;5110147;28;20059;-66
2021/12/18 04:53:21;;;;;;;46.97;28.77;;;7.90;99.90;;;;;;5107034;28;20047;-66
2021/12/18 04:55:48;;;;;;;42.75;29.27;;;7.90;99.90;;;;;;5107798;28;20066;-66
2021/12/18 04:58:15;;;;;;;44.10;29.85;;;7.90;99.90;;;;;;5108573;28;20139;-66
2021/12/18 05:00:46;;;;;;;39.33;27.08;;;7.90;99.90;;;;;;5110336;28;20062;-66
2021/12/18 05:03:15;;;;;;;48.13;28.10;;;7.90;99.90;;;;;;5110402;28;20055;-66
2021/12/18 05:05:42;;;;;;;43.08;27.05;;;7.90;99.90;;;;;;5092398;28;20051;-66
2021/12/18 05:08:09;;;;;;;44.80;28.05;;;7.90;99.90;;;;;;5110332;28;20095;-66
2021/12/18 05:10:36;;;;;;;52.75;32.50;;;7.90;99.90;;;;;;5091953;28;20066;-67
2021/12/18 05:13:03;;;;;;;42.85;27.88;;;8.00;99.90;;;;;;5091064;28;20083;-68
2021/12/18 05:15:30;;;;;;;44.85;30.10;;;8.00;99.90;;;;;;5109910;28;20043;-66
2021/12/18 05:17:57;;;;;;;48.60;30.15;;;7.90;99.90;;;;;;5108527;28;20055;-67
2021/12/18 05:20:24;;;;;;;54.88;30.85;;;7.90;99.90;;;;;;5109794;28;20509;-66
2021/12/18 05:22:51;;;;;;;50.70;30.48;;;7.90;99.90;;;;;;5109154;28;20044;-66
2021/12/18 05:25:18;;;;;;;47.58;29.48;;;7.90;99.90;;;;;;5110101;28;20087;-66
2021/12/18 05:27:45;;;;;;;48.72;29.92;;;8.00;99.90;;;;;;5110961;28;20146;-66
2021/12/18 05:30:12;;;;;;;49.50;29.63;;;8.00;99.90;;;;;;5111900;28;20047;-66
2021/12/18 05:32:39;;;;;;;48.78;30.50;;;8.00;99.90;;;;;;5109758;28;20065;-67
2021/12/18 05:35:06;;;;;;;52.53;32.67;;;8.00;99.90;;;;;;5108738;28;20142;-61
2021/12/18 05:38:07;;;;;;;94.85;60.38;;;8.00;99.90;;;;;;5092288;28;20056;-70
2021/12/18 05:40:26;;;;;;;91.70;55.17;;;8.00;99.90;;;;;;5072579;28;20164;-67
2021/12/18 05:42:53;;;;;;;63.15;42.78;;;8.00;99.90;;;;;;5105061;28;20050;-67
2021/12/18 05:45:20;;;;;;;57.70;34.00;;;8.10;99.90;;;;;;5091906;28;20048;-67
2021/12/18 05:47:47;;;;;;;54.05;34.15;;;8.00;99.90;;;;;;5109996;28;20050;-67
2021/12/18 05:50:16;;;;;;;54.80;30.42;;;8.00;99.90;;;;;;5108989;28;20380;-67
2021/12/18 05:52:45;;;;;;;51.07;31.73;;;8.10;99.90;;;;;;5101079;28;20054;-68
2021/12/18 05:55:14;;;;;;;55.72;29.95;;;8.00;99.90;;;;;;5064890;28;20040;-67
2021/12/18 05:57:44;;;;;;;55.33;32.10;;;8.00;99.90;;;;;;5099223;28;20081;-67
2021/12/18 06:00:12;;;;;;;51.47;32.08;;;8.00;99.90;;;;;;5091346;28;20371;-67
2021/12/18 06:02:39;;;;;;;53.33;34.17;;;8.10;99.90;;;;;;5109038;28;20507;-67
2021/12/18 06:05:07;;;;;;;55.83;33.08;;;8.10;99.90;;;;;;5110260;28;20044;-67
2021/12/18 06:10:21;;;;;;;56.05;33.28;;;8.10;99.90;;;;;;5095023;28;20054;-69
2021/12/18 06:12:49;;;;;;;56.80;30.00;;;8.10;99.90;;;;;;5089270;28;20089;-67
2021/12/18 06:15:16;;;;;;;54.10;33.03;;;8.10;99.90;;;;;;5092062;28;20449;-67
2021/12/18 06:17:43;;;;;;;65.38;34.33;;;8.10;99.90;;;;;;5094455;28;20127;-67
2021/12/18 06:20:10;;;;;;;66.13;36.13;;;8.10;99.90;;;;;;5113337;28;20070;-67
2021/12/18 06:22:38;;;;;;;65.18;39.83;;;8.00;99.90;;;;;;5086585;28;20502;-69
2021/12/18 06:25:05;;;;;;;59.55;37.17;;;8.10;99.90;;;;;;5111485;28;20039;-68
2021/12/18 06:27:32;;;;;;;57.70;32.25;;;8.10;99.90;;;;;;5110128;28;20051;-67
2021/12/18 06:30:01;;;;;;;60.45;33.28;;;8.10;99.90;;;;;;5112539;28;20086;-67
2021/12/18 06:32:28;;;;;;;57.00;31.50;;;8.10;99.90;;;;;;5110801;28;20059;-67
2021/12/18 06:34:55;;;;;;;55.13;31.02;;;8.10;99.90;;;;;;5093139;28;20087;-67
2021/12/18 06:37:22;;;;;;;56.42;32.40;;;8.20;99.90;;;;;;5091140;28;20075;-71
2021/12/18 06:39:49;;;;;;;51.33;29.40;;;8.20;99.90;;;;;;5091409;28;20044;-67
2021/12/18 06:42:35;;;;;;;50.90;31.42;;;8.20;99.90;;;;;;5092550;28;20048;-68
2021/12/18 06:45:03;;;;;;;53.05;30.27;;;8.20;99.90;;;;;;5074261;28;20458;-68
2021/12/18 06:47:30;;;;;;;54.13;31.85;;;8.20;99.90;;;;;;5089328;28;20131;-67
2021/12/18 06:49:57;;;;;;;55.30;31.58;;;8.20;99.90;;;;;;5101618;28;20119;-67
2021/12/18 06:52:24;;;;;;;55.53;30.90;;;8.20;99.90;;;;;;5074238;28;20130;-68
2021/12/18 06:54:51;;;;;;;65.43;35.20;;;8.20;99.90;;;;;;5070357;28;20054;-71
2021/12/18 06:57:22;;;;;;;56.17;33.78;;;8.20;99.90;;;;;;5112225;28;20083;-68
2021/12/18 06:59:50;;;;;;;55.92;31.27;;;8.20;99.90;;;;;;5109877;28;20479;-67
2021/12/18 07:02:17;;;;;;;52.25;30.70;;;8.20;99.90;;;;;;5112031;28;20191;-67
2021/12/18 07:04:44;;;;;;;63.17;35.33;;;8.20;99.90;;;;;;5093611;28;20097;-66
2021/12/18 07:07:11;;;;;;;67.78;34.17;;;8.20;99.90;;;;;;5110545;28;20043;-67
2021/12/18 07:09:38;;;;;;;58.60;31.70;;;8.20;99.90;;;;;;5110808;28;20123;-67
2021/12/18 07:12:05;;;;;;;60.25;31.33;;;8.20;99.90;;;;;;5110021;28;20119;-67
2021/12/18 07:14:32;;;;;;;56.25;31.08;;;8.20;99.90;;;;;;5109416;28;20044;-66
2021/12/18 07:16:59;;;;;;;67.90;34.40;;;8.20;99.90;;;;;;5076993;28;20047;-67
2021/12/18 07:19:26;;;;;;;53.47;29.75;;;8.20;99.90;;;;;;5093793;28;20043;-67
2021/12/18 07:21:53;;;;;;;56.85;30.42;;;8.20;99.90;;;;;;5110864;28;20039;-68
2021/12/18 07:24:20;;;;;;;54.40;30.55;;;8.20;99.90;;;;;;5104473;28;20131;-68
2021/12/18 07:26:47;;;;;;;59.13;32.75;;;8.20;99.90;;;;;;5110587;28;20127;-67
2021/12/18 07:29:14;;;;;;;60.78;33.75;;;8.10;99.90;;;;;;5093420;28;20127;-67
2021/12/18 07:31:41;;;;;;;64.68;32.90;;;8.10;99.90;;;;;;5111547;28;20052;-73
2021/12/18 07:34:08;;;;;;;58.70;32.05;;;8.10;99.90;;;;;;5084699;28;20840;-67
2021/12/18 07:36:35;;;;;;;67.45;34.85;;;8.20;99.90;;;;;;5098983;28;20406;-67
2021/12/18 07:39:03;;;;;;;55.15;30.98;;;8.10;99.90;;;;;;5111532;28;20123;-67
2021/12/18 07:41:30;;;;;;;53.97;30.60;;;8.10;99.90;;;;;;5110688;28;20138;-66
2021/12/18 07:43:57;;;;;;;56.13;31.58;;;8.10;99.90;;;;;;5111089;28;20106;-67
2021/12/18 07:46:25;;;;;;;49.25;28.08;;;8.10;99.90;;;;;;5110469;28;20058;-67
2021/12/18 07:48:52;;;;;;;58.75;30.05;;;8.10;99.90;;;;;;5077277;28;20044;-67
2021/12/18 07:51:19;;;;;;;62.45;31.65;;;8.10;99.90;;;;;;5089972;28;20497;-67
2021/12/18 07:53:46;;;;;;;50.65;29.33;;;8.20;99.90;;;;;;5093627;28;20138;-67
2021/12/18 07:56:13;;;;;;;53.63;31.23;;;8.10;99.90;;;;;;5104913;28;20050;-67
2021/12/18 07:58:40;;;;;;;52.85;29.92;;;8.10;99.90;;;;;;5110004;28;20040;-67
2021/12/18 08:01:07;;;;;;;54.47;30.92;;;8.10;99.90;;;;;;5087867;28;20157;-67
2021/12/18 08:03:34;;;;;;;54.80;32.17;;;8.10;99.90;;;;;;5110456;28;20055;-67
2021/12/18 08:06:01;;;;;;;58.25;29.88;;;8.10;99.90;;;;;;5111137;28;20058;-75
2021/12/18 08:08:28;;;;;;;59.03;29.90;;;8.20;99.90;;;;;;5077344;28;20115;-67
2021/12/18 08:10:55;;;;;;;51.60;29.55;;;8.10;99.90;;;;;;5111335;28;20044;-67
2021/12/18 08:13:22;;;;;;;55.15;28.60;;;8.10;99.90;;;;;;5095051;28;20055;-68
2021/12/18 08:15:49;;;;;;;51.75;29.02;;;8.10;99.90;;;;;;5089637;28;20094;-66
2021/12/18 08:18:16;;;;;;;54.08;31.40;;;8.10;99.90;;;;;;5077012;28;20473;-67
2021/12/18 08:20:43;;;;;;;46.90;30.02;;;8.10;99.90;;;;;;5097313;28;20050;-67
2021/12/18 08:23:10;;;;;;;52.05;31.23;;;8.10;99.90;;;;;;5105161;28;20044;-67
2021/12/18 08:25:37;;;;;;;47.92;28.58;;;8.10;99.90;;;;;;5087007;28;20076;-67
2021/12/18 08:28:04;;;;;;;52.67;31.63;;;8.10;99.90;;;;;;5100265;28;20047;-67
2021/12/18 08:30:32;;;;;;;53.22;32.33;;;8.20;99.90;;;;;;5110163;28;20047;-66
2021/12/18 08:32:59;;;;;;;55.80;34.40;;;8.20;99.90;;;;;;5090772;28;20048;-66
2021/12/18 08:35:27;;;;;;;47.50;29.10;;;8.20;99.90;;;;;;5108802;28;20104;-69
2021/12/18 08:37:54;;;;;;;56.20;34.20;;;8.20;99.90;;;;;;5092405;28;20044;-74
2021/12/18 08:40:21;;;;;;;50.95;31.30;;;8.20;99.90;;;;;;5108310;28;20073;-70
2021/12/18 08:42:49;;;;;;;46.53;30.30;;;8.30;99.90;;;;;;5104768;28;20400;-72
2021/12/18 08:45:16;;;;;;;209.82;146.00;;;8.30;99.90;;;;;;5109950;28;20047;-62
2021/12/18 08:47:43;;;;;;;156.13;121.18;;;8.50;99.90;;;;;;5095795;28;20133;-63
2021/12/18 08:50:13;;;;;;;50.20;35.70;;;8.70;99.90;;;;;;5104259;28;20071;-63
2021/12/18 08:52:40;;;;;;;46.50;33.08;;;8.90;99.90;;;;;;5092563;28;20138;-63
2021/12/18 08:55:07;;;;;;;50.63;33.22;;;9.10;99.90;;;;;;5088005;28;20044;-63
2021/12/18 08:57:35;;;;;;;46.13;30.52;;;9.20;99.90;;;;;;5095883;28;20123;-63
2021/12/18 09:00:06;;;;;;;49.00;32.17;;;9.30;99.90;;;;;;5099304;28;20108;-64
2021/12/18 09:02:33;;;;;;;43.33;29.13;;;9.40;99.90;;;;;;5079884;28;20131;-63
2021/12/18 09:05:02;;;;;;;42.47;29.63;;;9.40;99.90;;;;;;5109627;28;20113;-67
2021/12/18 09:07:30;;;;;;;40.60;28.33;;;9.50;99.90;;;;;;5090148;28;20052;-64
2021/12/18 09:09:58;;;;;;;40.25;28.70;;;9.60;99.90;;;;;;5089830;28;20055;-65
2021/12/18 09:12:25;;;;;;;40.30;28.63;;;9.60;99.90;;;;;;5089473;28;20139;-64
2021/12/18 09:14:53;;;;;;;32.92;24.73;;;9.70;99.90;;;;;;5098690;28;20122;-63
2021/12/18 09:17:20;;;;;;;34.38;25.65;;;9.70;99.90;;;;;;5093013;28;20055;-63
2021/12/18 09:19:47;;;;;;;30.27;24.55;;;9.70;99.90;;;;;;5072535;28;20055;-61
2021/12/18 09:22:14;;;;;;;36.22;26.20;;;9.70;99.90;;;;;;5092473;28;20058;-61
2021/12/18 09:24:41;;;;;;;32.00;25.05;;;9.80;99.90;;;;;;5107157;28;20078;-62
2021/12/18 09:27:08;;;;;;;30.42;24.40;;;9.90;99.90;;;;;;5083243;28;20047;-61
2021/12/18 09:29:36;;;;;;;30.15;23.38;;;9.90;99.90;;;;;;5104547;28;20052;-62
2021/12/18 09:32:03;;;;;;;25.23;21.73;;;10.00;99.90;;;;;;5109298;28;20051;-61
2021/12/18 09:34:31;;;;;;;33.22;27.35;;;10.00;99.90;;;;;;5090651;28;20065;-61
2021/12/18 09:36:58;;;;;;;34.22;27.02;;;10.00;99.90;;;;;;5075940;28;20053;-62
2021/12/18 09:39:27;;;;;;;33.80;26.95;;;10.00;99.90;;;;;;5105913;28;20468;-62
2021/12/18 09:41:54;;;;;;;36.27;27.10;;;9.90;99.90;;;;;;5108408;28;20142;-62
2021/12/18 09:44:23;;;;;;;35.13;26.08;;;10.00;99.90;;;;;;5109985;28;20054;-61
2021/12/18 09:46:50;;;;;;;39.25;31.65;;;10.10;99.90;;;;;;5109959;28;20055;-62
2021/12/18 09:49:19;;;;;;;33.20;25.30;;;10.10;99.90;;;;;;5111708;28;20043;-60
2021/12/18 09:51:48;;;;;;;26.73;21.50;;;10.10;99.90;;;;;;5095065;28;20047;-62
2021/12/18 09:54:15;;;;;;;24.83;19.90;;;10.10;99.90;;;;;;5077647;28;20059;-61
2021/12/18 09:56:43;;;;;;;22.85;19.58;;;10.10;99.90;;;;;;5093261;28;20048;-60
2021/12/18 09:59:10;;;;;;;26.05;20.27;;;10.10;99.90;;;;;;5103974;28;20375;-61
2021/12/18 10:01:37;;;;;;;24.10;20.58;;;10.10;99.90;;;;;;5111726;28;20054;-60
2021/12/18 10:04:04;;;;;;;21.00;17.52;;;10.10;99.90;;;;;;5093819;28;20089;-62
2021/12/18 10:06:43;;;;;;;33.55;28.13;;;10.10;99.90;;;;;;5093883;28;20050;-63
2021/12/18 10:09:11;;;;;;;29.08;24.63;;;10.10;99.90;;;;;;5110832;28;20077;-61
2021/12/18 10:12:15;;;;;;;35.22;28.35;;;10.10;99.90;;;;;;5110581;28;20075;-65
2021/12/18 10:14:48;;;;;;;28.70;19.98;;;10.10;99.90;;;;;;5108174;27;20040;-66
2021/12/18 10:17:18;;;;;;;23.83;20.38;;;10.20;99.90;;;;;;5110380;28;20070;-61
2021/12/18 10:19:47;;;;;;;25.38;21.65;;;10.20;99.90;;;;;;5111073;28;20165;-69
2021/12/18 10:22:14;;;;;;;26.25;19.80;;;10.30;99.90;;;;;;5109016;28;20055;-65
2021/12/18 10:24:43;;;;;;;21.80;18.30;;;10.30;99.90;;;;;;5108277;28;20062;-62
2021/12/18 10:27:17;;;;;;;20.73;18.45;;;10.30;99.90;;;;;;5092654;28;20047;-62
2021/12/18 10:29:45;;;;;;;23.77;20.45;;;10.30;99.90;;;;;;5105397;27;20051;-61
2021/12/18 10:32:19;;;;;;;20.67;18.00;;;10.30;99.90;;;;;;5074093;28;20470;-65
2021/12/18 10:34:56;;;;;;;18.05;15.00;;;10.30;99.90;;;;;;5103001;28;20131;-63
2021/12/18 10:37:27;;;;;;;23.27;16.60;;;10.30;99.90;;;;;;5114822;27;20112;-64
2021/12/18 10:39:54;;;;;;;20.40;16.92;;;10.20;99.90;;;;;;5107786;28;20075;-63
2021/12/18 10:42:33;;;;;;;22.75;18.52;;;10.20;99.90;;;;;;5108580;28;20044;-62
2021/12/18 10:45:20;;;;;;;21.20;18.15;;;10.20;99.90;;;;;;5107548;28;20044;-67
2021/12/18 10:48:06;;;;;;;22.20;18.30;;;10.20;99.90;;;;;;5107573;28;20403;-63
2021/12/18 10:50:49;;;;;;;20.92;18.73;;;10.20;99.90;;;;;;5109857;28;20097;-62
2021/12/18 10:53:23;;;;;;;81.72;72.95;;;10.10;99.90;;;;;;5093008;28;20111;-62
2021/12/18 10:55:52;;;;;;;34.20;28.10;;;10.10;99.90;;;;;;5100214;28;20124;-66
2021/12/18 10:58:34;;;;;;;85.13;61.63;;;10.30;99.90;;;;;;5088406;28;20254;-66
2021/12/18 11:01:07;;;;;;;97.45;75.00;;;10.40;99.90;;;;;;5104228;28;20092;-66
2021/12/18 11:03:43;;;;;;;32.17;26.10;;;10.50;99.90;;;;;;5108771;28;20043;-63
2021/12/18 11:06:27;;;;;;;25.50;22.77;;;10.70;99.90;;;;;;5108856;28;20406;-64
2021/12/18 11:09:16;;;;;;;25.27;20.88;;;10.80;99.90;;;;;;5109096;28;20044;-63
2021/12/18 11:14:14;;;;;;;20.42;17.63;;;10.80;99.90;;;;;;5089708;28;20047;-63
2021/12/18 11:16:43;;;;;;;23.27;20.27;;;10.70;99.90;;;;;;5090514;28;20066;-65
2021/12/18 11:19:13;;;;;;;21.10;18.85;;;10.70;99.90;;;;;;5088791;28;20050;-63
2021/12/18 11:21:51;;;;;;;20.52;18.33;;;10.70;99.90;;;;;;5088295;28;20555;-64
2021/12/18 11:24:22;;;;;;;38.22;30.15;;;10.80;99.90;;;;;;5078706;28;20048;-68
2021/12/18 11:27:03;;;;;;;23.33;20.83;;;10.70;99.90;;;;;;5075662;28;20499;-63
2021/12/18 11:29:46;;;;;;;34.88;27.27;;;10.70;99.90;;;;;;5109728;28;20051;-63
2021/12/18 11:32:43;;;;;;;18.17;16.38;;;10.50;99.90;;;;;;5109909;28;20104;-69
2021/12/18 11:35:19;;;;;;;17.50;13.60;;;10.50;99.90;;;;;;5092633;28;20069;-69
2021/12/18 11:37:48;;;;;;;17.92;16.05;;;10.50;99.90;;;;;;5081517;28;20084;-63
2021/12/18 11:40:18;;;;;;;18.90;16.90;;;10.50;99.90;;;;;;5108448;28;20063;-63
2021/12/18 11:42:45;;;;;;;18.00;16.15;;;10.60;99.90;;;;;;5109891;27;20078;-62
2021/12/18 11:45:12;;;;;;;19.30;17.30;;;10.70;99.90;;;;;;5087087;28;20090;-61
2021/12/18 11:47:44;;;;;;;28.23;24.42;;;10.70;99.90;;;;;;5088114;28;20134;-66
2021/12/18 11:50:39;;;;;;;27.90;24.98;;;10.70;99.90;;;;;;5088391;28;20044;-62
2021/12/18 11:53:10;;;;;;;18.17;16.38;;;10.70;99.90;;;;;;5089722;28;20100;-61
2021/12/18 11:55:50;;;;;;;15.07;13.57;;;10.70;99.90;;;;;;5105749;28;20051;-73
2021/12/18 11:58:17;;;;;;;15.38;13.07;;;10.70;99.90;;;;;;5092877;28;20096;-63
2021/12/18 12:01:00;;;;;;;13.98;12.57;;;10.70;99.90;;;;;;5107594;28;20055;-66
2021/12/18 12:03:36;;;;;;;15.52;13.95;;;10.60;99.90;;;;;;5092308;28;20056;-64
2021/12/18 12:06:28;;;;;;;52.80;41.33;;;10.60;99.90;;;;;;5107291;28;20059;-68
2021/12/18 12:09:37;;;;;;;51.00;40.85;;;10.70;99.90;;;;;;5097039;28;20040;-66
2021/12/18 12:12:05;;;;;;;;;;;10.80;99.90;;;;;;5094014;28;20078;-65
2021/12/18 12:14:41;;;;;;;13.25;11.93;;;10.80;99.90;;;;;;5107988;28;19923;-64
2021/12/18 12:17:21;;;;;;;16.70;15.10;;;10.80;99.90;;;;;;5098302;28;20101;-65
2021/12/18 12:19:50;;;;;;;11.95;10.75;;;10.70;99.90;;;;;;5124053;27;20377;-65
2021/12/18 12:22:39;;;;;;;20.38;18.25;;;10.70;99.90;;;;;;5107652;28;20066;-64
2021/12/18 12:25:10;;;;;;;16.00;14.30;;;10.70;99.90;;;;;;5090456;28;20489;-64
2021/12/18 12:27:39;;;;;;;15.73;14.10;;;10.70;99.90;;;;;;5090913;28;20127;-70
2021/12/18 12:30:26;;;;;;;14.20;12.80;;;10.60;99.90;;;;;;5090903;28;20087;-63
2021/12/18 12:33:02;;;;;;;15.20;13.27;;;10.60;99.90;;;;;;5109244;28;20051;-68
2021/12/18 12:35:59;;;;;;;13.05;11.38;;;10.60;99.90;;;;;;5108765;28;20047;-69
2021/12/18 12:38:29;;;;;;;15.45;13.70;;;10.60;99.90;;;;;;5109060;28;20364;-64
2021/12/18 12:40:57;;;;;;;14.60;13.10;;;10.60;99.90;;;;;;5107125;28;20410;-77
2021/12/18 12:43:28;;;;;;;14.13;12.68;;;10.70;99.90;;;;;;5091107;28;20052;-69
2021/12/18 12:45:59;;;;;;;197.95;158.70;;;10.70;99.90;;;;;;5098875;28;20079;-67
2021/12/18 12:48:59;;;;;;;15.18;13.60;;;10.80;99.90;;;;;;5087270;28;20059;-64
2021/12/18 12:51:26;;;;;;;13.93;12.68;;;10.90;99.90;;;;;;5089773;28;20134;-64
2021/12/18 12:53:54;;;;;;;15.68;14.07;;;10.90;99.90;;;;;;5059192;28;20123;-70
2021/12/18 12:56:22;;;;;;;10.32;9.32;;;11.00;99.90;;;;;;5092435;28;20055;-63
2021/12/18 12:59:24;;;;;;;12.60;11.30;;;10.90;99.90;;;;;;5111150;28;20071;-64
2021/12/18 13:01:51;;;;;;;12.32;11.18;;;10.80;99.90;;;;;;5088860;28;20487;-63
2021/12/18 13:04:18;;;;;;;13.23;11.85;;;10.70;99.90;;;;;;5104326;28;20548;-64
2021/12/18 13:06:45;;;;;;;16.77;15.00;;;10.70;99.90;;;;;;5110076;28;20420;-64
2021/12/18 13:09:12;;;;;;;11.15;9.98;;;10.70;99.90;;;;;;5066634;28;20048;-64
2021/12/18 13:11:39;;;;;;;19.73;11.25;;;10.70;99.90;;;;;;5088976;28;20131;-66
2021/12/18 13:14:11;;;;;;;15.50;13.75;;;10.60;99.90;;;;;;5112337;28;20052;-66
2021/12/18 13:16:38;;;;;;;12.25;10.93;;;10.70;99.90;;;;;;5095200;28;20044;-65
2021/12/18 13:19:05;;;;;;;13.45;12.05;;;10.70;99.90;;;;;;5114767;28;20109;-64
2021/12/18 13:21:33;;;;;;;13.90;12.50;;;10.70;99.90;;;;;;5113196;28;20081;-64
2021/12/18 13:24:04;;;;;;;11.73;10.55;;;10.80;99.90;;;;;;5096059;28;20089;-65
2021/12/18 13:26:36;;;;;;;12.25;11.00;;;10.80;99.90;;;;;;5112858;28;20075;-64
2021/12/18 13:29:09;;;;;;;13.93;12.60;;;10.80;99.90;;;;;;5096894;28;20124;-64
2021/12/18 13:31:49;;;;;;;12.18;10.98;;;10.80;99.90;;;;;;5097016;28;20538;-64
2021/12/18 13:34:18;;;;;;;12.07;10.43;;;10.80;99.90;;;;;;5113408;28;20047;-64
2021/12/18 13:36:47;;;;;;;12.50;10.90;;;10.80;99.90;;;;;;5114784;28;20450;-64